Time;durP1;ratioP1;P1;durP2;ratioP2;P2;SDS_P1;SDS_P2;PMS_P1;PMS_P2;Temp;Humidity;BMP_temperature;BMP_pressure;BME280_temperature;BME280_humidity;BME280_pressure;Samples;Min_cycle;Max_cycle;Signal;HPM_P1;HPM_P2
2021/09/16 00:00:07;;;;;;;14.23;6.55;;;;;;;13.68;82.74;95347.50;5091107;28;20051;-68
2021/09/16 00:02:38;;;;;;;14.70;8.15;;;;;;;13.34;83.71;95331.75;5103239;28;20508;-68
2021/09/16 00:05:06;;;;;;;8.20;6.03;;;;;;;13.25;84.39;95331.31;5094356;28;20097;-69
2021/09/16 00:07:33;;;;;;;9.68;6.10;;;;;;;13.30;83.58;95333.22;5102078;28;20484;-68
2021/09/16 00:10:00;;;;;;;10.65;5.65;;;;;;;13.35;83.21;95333.34;5094749;28;20048;-69
2021/09/16 00:12:27;;;;;;;8.88;5.97;;;;;;;13.47;82.80;95336.69;5103790;28;20043;-68
2021/09/16 00:14:54;;;;;;;9.25;5.70;;;;;;;13.54;81.86;95334.72;5099458;28;20101;-68
2021/09/16 00:17:21;;;;;;;9.68;5.32;;;;;;;13.60;81.38;95340.06;5092463;28;20073;-69
2021/09/16 00:19:48;;;;;;;7.18;4.93;;;;;;;13.67;80.52;95345.94;5092852;28;20477;-69
2021/09/16 00:22:14;;;;;;;10.25;6.18;;;;;;;13.67;79.73;95335.44;5102005;28;20044;-68
2021/09/16 00:24:41;;;;;;;10.80;6.95;;;;;;;13.67;79.74;95335.44;5096243;28;20036;-68
2021/09/16 00:27:08;;;;;;;7.55;5.35;;;;;;;13.72;79.10;95332.91;5091225;28;20641;-68
2021/09/16 00:29:35;;;;;;;11.32;6.85;;;;;;;13.77;79.04;95340.81;5090074;28;20043;-68
2021/09/16 00:32:01;;;;;;;12.27;6.18;;;;;;;13.73;79.12;95329.25;5088550;28;20137;-68
2021/09/16 00:34:28;;;;;;;9.38;5.45;;;;;;;13.77;78.52;95338.22;5088599;28;20043;-69
2021/09/16 00:36:55;;;;;;;8.07;5.85;;;;;;;13.70;78.64;95334.97;5094177;28;20093;-68
2021/09/16 00:39:22;;;;;;;9.60;4.95;;;;;;;13.66;78.76;95339.09;5092569;28;20048;-69
2021/09/16 00:41:49;;;;;;;8.88;5.20;;;;;;;13.67;78.45;95341.47;5087130;28;20398;-69
2021/09/16 00:44:15;;;;;;;8.90;5.70;;;;;;;13.54;78.93;95329.50;5088197;28;20028;-68
2021/09/16 00:46:42;;;;;;;10.05;5.97;;;;;;;13.43;79.20;95335.56;5099455;28;20063;-69
2021/09/16 00:49:09;;;;;;;8.20;4.95;;;;;;;13.31;79.43;95321.78;5090311;28;20517;-68
2021/09/16 00:51:38;;;;;;;9.25;5.45;;;;;;;13.37;80.07;95331.28;5092105;28;20051;-69
2021/09/16 00:54:08;;;;;;;10.77;5.22;;;;;;;13.37;79.99;95341.75;5093910;28;20055;-68
2021/09/16 00:56:38;;;;;;;9.32;5.78;;;;;;;13.28;80.47;95346.53;5088243;28;20469;-68
2021/09/16 00:59:06;;;;;;;9.82;5.68;;;;;;;13.15;81.29;95350.25;5104552;28;20421;-68
2021/09/16 01:01:33;;;;;;;8.20;5.18;;;;;;;13.03;82.11;95351.31;5100029;28;20104;-68
2021/09/16 01:04:00;;;;;;;8.85;5.38;;;;;;;12.95;82.65;95349.88;5097500;28;20058;-68
2021/09/16 01:06:27;;;;;;;7.30;5.30;;;;;;;12.84;83.17;95345.44;5097530;28;20044;-69
2021/09/16 01:08:54;;;;;;;8.48;5.20;;;;;;;12.77;83.76;95330.72;5096726;28;20051;-68
2021/09/16 01:11:21;;;;;;;7.43;5.13;;;;;;;12.84;84.27;95342.84;5097835;28;20048;-68
2021/09/16 01:13:48;;;;;;;8.13;5.07;;;;;;;12.80;84.74;95343.31;5092636;28;20484;-68
2021/09/16 01:16:15;;;;;;;9.57;5.93;;;;;;;12.86;83.74;95343.44;5096802;28;20039;-68
2021/09/16 01:18:41;;;;;;;8.50;5.35;;;;;;;12.87;83.37;95343.16;5092604;28;20040;-69
2021/09/16 01:21:08;;;;;;;9.95;5.75;;;;;;;12.81;82.44;95334.44;5097731;28;20463;-69
2021/09/16 01:23:35;;;;;;;8.40;5.80;;;;;;;12.91;81.81;95338.28;5103606;28;20040;-69
2021/09/16 01:26:02;;;;;;;9.43;5.53;;;;;;;12.95;82.49;95339.41;5102675;28;20497;-69
2021/09/16 01:28:29;;;;;;;7.72;4.72;;;;;;;12.92;82.36;95340.66;5094774;28;20036;-69
2021/09/16 01:30:56;;;;;;;7.82;5.13;;;;;;;12.92;81.42;95334.63;5097013;28;20097;-69
2021/09/16 01:33:23;;;;;;;9.95;5.47;;;;;;;12.84;81.25;95335.00;5093993;28;20044;-69
2021/09/16 01:35:49;;;;;;;8.57;5.55;;;;;;;12.68;81.32;95313.81;5101627;28;20047;-69
2021/09/16 01:38:16;;;;;;;11.45;5.40;;;;;;;12.78;81.04;95324.47;5100233;28;20044;-69
2021/09/16 01:40:43;;;;;;;9.70;5.43;;;;;;;12.85;80.89;95336.59;5104999;28;20058;-69
2021/09/16 01:43:10;;;;;;;6.93;5.25;;;;;;;12.85;80.78;95334.78;5097075;28;20051;-68
2021/09/16 01:45:36;;;;;;;8.00;5.28;;;;;;;12.84;80.72;95327.16;5088701;28;20044;-69
2021/09/16 01:48:03;;;;;;;6.95;5.05;;;;;;;12.71;80.83;95318.59;5094184;28;20035;-69
2021/09/16 01:50:31;;;;;;;9.18;5.38;;;;;;;12.72;80.80;95330.59;5092480;28;20060;-69
2021/09/16 01:52:57;;;;;;;6.72;4.60;;;;;;;12.62;80.65;95331.22;5097318;28;20039;-69
2021/09/16 01:55:24;;;;;;;8.63;5.32;;;;;;;12.56;81.09;95311.22;5095560;28;20040;-69
2021/09/16 01:57:52;;;;;;;7.15;4.93;;;;;;;12.61;81.23;95326.22;5088180;28;20044;-69
2021/09/16 02:00:18;;;;;;;7.40;4.68;;;;;;;12.51;81.55;95318.94;5090608;28;20100;-69
2021/09/16 02:02:45;;;;;;;6.97;4.82;;;;;;;12.56;81.57;95326.09;5090822;28;20054;-70
2021/09/16 02:05:12;;;;;;;8.25;5.05;;;;;;;12.53;81.49;95323.94;5087714;28;20043;-69
2021/09/16 02:07:39;;;;;;;8.88;5.47;;;;;;;12.51;81.06;95323.38;5087426;28;20051;-69
2021/09/16 02:10:07;;;;;;;6.72;4.53;;;;;;;12.55;80.86;95327.13;5096758;28;20124;-69
2021/09/16 02:12:34;;;;;;;7.03;4.80;;;;;;;12.51;81.32;95328.59;5099666;28;20044;-69
2021/09/16 02:15:01;;;;;;;7.93;5.50;;;;;;;12.46;80.84;95331.13;5099514;28;20563;-69
2021/09/16 02:17:28;;;;;;;8.50;5.18;;;;;;;12.45;80.64;95324.31;5094970;28;20378;-68
2021/09/16 02:19:55;;;;;;;8.88;5.55;;;;;;;11.99;83.38;95324.94;5088299;28;20089;-69
2021/09/16 02:22:22;;;;;;;7.93;5.00;;;;;;;11.97;83.64;95308.66;5096766;28;20043;-69
2021/09/16 02:24:49;;;;;;;7.68;5.22;;;;;;;11.77;85.61;95326.47;5097407;28;20036;-69
2021/09/16 02:27:15;;;;;;;7.78;5.38;;;;;;;11.77;85.89;95318.63;5096787;28;20129;-68
2021/09/16 02:29:42;;;;;;;8.23;5.47;;;;;;;11.82;85.97;95316.94;5096848;28;20482;-68
2021/09/16 02:32:09;;;;;;;12.73;5.60;;;;;;;11.87;85.37;95313.66;5094737;28;20118;-69
2021/09/16 02:34:36;;;;;;;7.88;5.75;;;;;;;11.89;84.41;95316.84;5088874;28;20044;-68
2021/09/16 02:37:03;;;;;;;10.57;6.35;;;;;;;11.92;84.21;95326.03;5094783;28;20078;-69
2021/09/16 02:39:30;;;;;;;13.55;6.88;;;;;;;11.91;83.97;95330.47;5088298;28;20097;-69
2021/09/16 02:41:56;;;;;;;8.48;5.25;;;;;;;11.85;83.76;95331.38;5097464;28;20040;-68
2021/09/16 02:44:23;;;;;;;9.90;5.82;;;;;;;11.84;84.03;95334.97;5095140;28;20039;-69
2021/09/16 02:46:50;;;;;;;9.45;5.70;;;;;;;11.82;84.16;95321.38;5095468;28;20047;-69
2021/09/16 02:49:17;;;;;;;8.52;5.05;;;;;;;11.98;84.34;95332.97;5098356;28;20101;-69
2021/09/16 02:51:43;;;;;;;10.23;5.95;;;;;;;12.09;83.33;95336.63;5092668;28;20467;-70
2021/09/16 02:54:10;;;;;;;9.13;5.78;;;;;;;12.05;82.37;95342.28;5097132;28;20052;-69
2021/09/16 02:56:37;;;;;;;8.82;5.22;;;;;;;11.97;82.37;95337.38;5100113;28;20051;-69
2021/09/16 02:59:04;;;;;;;12.05;6.03;;;;;;;11.93;82.36;95341.47;5104809;28;20120;-69
2021/09/16 03:01:30;;;;;;;7.80;5.03;;;;;;;11.88;82.27;95343.94;5098684;28;20059;-69
2021/09/16 03:03:57;;;;;;;7.97;5.30;;;;;;;11.89;82.09;95347.38;5094398;28;20497;-69
2021/09/16 03:06:24;;;;;;;10.50;5.78;;;;;;;11.78;82.60;95341.13;5087823;28;20032;-69
2021/09/16 03:08:51;;;;;;;10.63;5.80;;;;;;;11.80;83.14;95339.06;5088508;28;20562;-70
2021/09/16 03:11:18;;;;;;;8.95;5.80;;;;;;;11.74;84.43;95340.78;5094205;28;20059;-69
2021/09/16 03:13:45;;;;;;;7.88;4.72;;;;;;;11.72;83.79;95336.78;5097735;28;20101;-69
2021/09/16 03:16:11;;;;;;;9.32;5.63;;;;;;;11.66;83.52;95344.47;5091933;28;20032;-69
2021/09/16 03:18:38;;;;;;;10.00;5.93;;;;;;;11.57;83.81;95332.78;5105515;28;20047;-69
2021/09/16 03:21:05;;;;;;;8.30;5.45;;;;;;;11.60;84.35;95345.38;5095871;28;20801;-69
2021/09/16 03:23:32;;;;;;;9.93;6.05;;;;;;;11.60;84.77;95340.16;5088507;28;20040;-69
2021/09/16 03:25:59;;;;;;;10.48;6.45;;;;;;;11.58;84.37;95339.59;5098109;28;20048;-69
2021/09/16 03:28:25;;;;;;;10.50;6.50;;;;;;;11.57;84.37;95348.44;5089847;28;20496;-69
2021/09/16 03:30:52;;;;;;;11.90;6.50;;;;;;;11.61;84.27;95341.78;5103468;28;20036;-69
2021/09/16 03:33:19;;;;;;;8.45;5.28;;;;;;;11.65;84.33;95336.91;5101405;28;20044;-69
2021/09/16 03:35:46;;;;;;;9.65;6.15;;;;;;;11.57;84.29;95330.19;5090190;28;20044;-69
2021/09/16 03:38:13;;;;;;;10.10;5.55;;;;;;;11.54;84.52;95320.22;5096797;28;20043;-69
2021/09/16 03:40:39;;;;;;;9.70;6.45;;;;;;;11.63;85.42;95331.09;5094923;28;20052;-69
2021/09/16 03:43:06;;;;;;;9.95;5.85;;;;;;;11.52;86.78;95322.22;5091701;28;20117;-70
2021/09/16 03:45:33;;;;;;;11.05;5.78;;;;;;;11.56;87.42;95317.34;5095163;28;20043;-70
2021/09/16 03:48:00;;;;;;;9.30;5.53;;;;;;;11.58;87.27;95316.13;5101098;28;20048;-70
2021/09/16 03:50:27;;;;;;;11.70;7.05;;;;;;;11.66;86.48;95328.81;5095387;28;20048;-69
2021/09/16 03:52:53;;;;;;;8.30;5.90;;;;;;;11.73;85.23;95328.72;5094519;27;20121;-70
2021/09/16 03:55:20;;;;;;;8.10;5.68;;;;;;;11.60;84.31;95328.94;5093488;28;20047;-70
2021/09/16 03:57:48;;;;;;;10.70;5.95;;;;;;;11.55;84.86;95332.22;5096812;28;20104;-69
2021/09/16 04:00:15;;;;;;;9.75;6.07;;;;;;;11.56;85.48;95333.00;5091327;28;20044;-69
2021/09/16 04:02:42;;;;;;;10.32;6.22;;;;;;;11.53;85.46;95323.81;5089559;28;20048;-69
2021/09/16 04:05:09;;;;;;;11.50;6.05;;;;;;;11.64;84.71;95341.31;5089710;28;20086;-69
2021/09/16 04:07:36;;;;;;;9.95;5.78;;;;;;;11.57;84.34;95330.19;5091177;28;20486;-69
2021/09/16 04:10:05;;;;;;;10.00;5.80;;;;;;;11.54;84.50;95330.66;5094398;28;20072;-69
2021/09/16 04:12:32;;;;;;;12.15;6.28;;;;;;;11.66;85.42;95333.25;5092940;28;20062;-69
2021/09/16 04:14:59;;;;;;;12.18;7.05;;;;;;;11.70;84.97;95328.38;5090535;28;20051;-69
2021/09/16 04:17:26;;;;;;;9.82;6.72;;;;;;;11.75;83.98;95333.72;5097859;28;20032;-70
2021/09/16 04:19:53;;;;;;;9.45;6.07;;;;;;;11.67;83.50;95330.44;5097332;28;20035;-69
2021/09/16 04:22:20;;;;;;;10.20;6.38;;;;;;;11.60;84.11;95329.75;5098990;28;20040;-70
2021/09/16 04:24:46;;;;;;;9.48;6.13;;;;;;;11.62;84.53;95338.13;5099190;28;20522;-70
2021/09/16 04:27:13;;;;;;;8.98;5.50;;;;;;;11.54;84.16;95333.25;5099045;28;20035;-69
2021/09/16 04:29:41;;;;;;;9.63;6.40;;;;;;;11.59;84.26;95349.00;5093636;28;20043;-70
2021/09/16 04:32:09;;;;;;;9.68;6.55;;;;;;;11.56;84.86;95344.25;5097134;28;20048;-69
2021/09/16 04:34:36;;;;;;;10.85;6.90;;;;;;;11.59;84.97;95359.44;5093947;28;20551;-68
2021/09/16 04:37:04;;;;;;;11.02;6.43;;;;;;;11.50;85.42;95360.78;5094525;28;20039;-68
2021/09/16 04:39:31;;;;;;;14.63;7.07;;;;;;;11.52;85.80;95352.75;5090477;28;20043;-68
2021/09/16 04:41:57;;;;;;;12.65;6.47;;;;;;;11.60;85.50;95361.03;5096255;28;20127;-68
2021/09/16 04:44:24;;;;;;;9.85;6.55;;;;;;;11.59;85.60;95358.66;5097080;28;21220;-70
2021/09/16 04:46:51;;;;;;;10.77;6.13;;;;;;;11.66;85.52;95365.34;5091291;28;20044;-68
2021/09/16 04:49:17;;;;;;;15.15;7.97;;;;;;;11.71;85.57;95371.72;5096828;28;20521;-69
2021/09/16 04:51:44;;;;;;;10.70;6.85;;;;;;;11.76;86.10;95366.66;5091121;28;20032;-69
2021/09/16 04:54:11;;;;;;;10.20;6.55;;;;;;;11.83;85.68;95369.94;5103927;28;20059;-69
2021/09/16 04:56:38;;;;;;;10.20;6.93;;;;;;;11.87;86.47;95365.84;5097737;28;20039;-70
2021/09/16 04:59:05;;;;;;;13.48;6.95;;;;;;;11.94;86.51;95371.78;5087199;28;20497;-69
2021/09/16 05:01:31;;;;;;;11.05;6.10;;;;;;;11.93;87.29;95354.53;5089889;28;20052;-71
2021/09/16 05:03:58;;;;;;;11.02;6.78;;;;;;;11.96;87.65;95369.75;5090133;28;20040;-68
2021/09/16 05:06:25;;;;;;;11.10;6.30;;;;;;;11.91;87.85;95356.56;5092240;28;21014;-68
2021/09/16 05:08:52;;;;;;;11.07;6.35;;;;;;;11.95;88.18;95357.72;5090807;28;20437;-68
2021/09/16 05:11:19;;;;;;;11.35;7.63;;;;;;;11.98;88.76;95362.47;5093372;28;20048;-68
2021/09/16 05:13:45;;;;;;;13.02;6.97;;;;;;;12.10;89.58;95366.91;5089509;28;20049;-68
2021/09/16 05:16:12;;;;;;;16.27;7.03;;;;;;;12.26;89.70;95376.66;5091820;28;20414;-68
2021/09/16 05:18:39;;;;;;;12.55;8.05;;;;;;;12.36;89.22;95379.50;5093088;28;20043;-69
2021/09/16 05:21:06;;;;;;;16.50;8.23;;;;;;;12.47;89.08;95384.97;5097869;28;20036;-69
2021/09/16 05:23:33;;;;;;;15.30;7.20;;;;;;;12.51;89.36;95380.88;5091844;28;20546;-69
2021/09/16 05:25:59;;;;;;;12.52;7.18;;;;;;;12.59;89.20;95377.91;5098924;28;20038;-69
2021/09/16 05:28:26;;;;;;;11.93;7.82;;;;;;;12.67;89.71;95380.16;5096350;28;20100;-70
2021/09/16 05:30:53;;;;;;;10.55;6.47;;;;;;;12.81;89.31;95389.34;5097474;28;20048;-69
2021/09/16 05:33:20;;;;;;;11.90;7.22;;;;;;;12.93;88.26;95388.53;5097931;28;20039;-69
2021/09/16 05:35:47;;;;;;;10.55;6.85;;;;;;;12.93;88.74;95384.09;5092797;28;20044;-69
2021/09/16 05:38:14;;;;;;;11.73;7.63;;;;;;;12.94;89.47;95400.56;5098439;28;20059;-69
2021/09/16 05:40:41;;;;;;;10.63;6.88;;;;;;;12.91;90.33;95395.78;5098882;28;20035;-69
2021/09/16 05:43:07;;;;;;;10.95;7.32;;;;;;;12.91;90.60;95395.78;5097242;28;20081;-69
2021/09/16 05:45:34;;;;;;;10.75;7.10;;;;;;;12.99;89.98;95393.59;5092627;28;20040;-67
2021/09/16 05:48:01;;;;;;;11.25;7.32;;;;;;;12.95;90.45;95386.47;5094219;28;20047;-70
2021/09/16 05:50:28;;;;;;;11.60;6.90;;;;;;;13.07;89.84;95392.47;5097128;28;20044;-70
2021/09/16 05:52:55;;;;;;;14.50;7.07;;;;;;;13.11;89.40;95379.72;5093237;28;20047;-70
2021/09/16 05:55:22;;;;;;;12.38;8.10;;;;;;;13.17;88.70;95379.56;5094477;28;20039;-69
2021/09/16 05:57:49;;;;;;;11.25;7.70;;;;;;;13.24;89.44;95389.09;5095404;28;20047;-70
2021/09/16 06:00:16;;;;;;;12.48;7.57;;;;;;;13.33;88.93;95377.28;5091628;28;20459;-71
2021/09/16 06:02:43;;;;;;;15.25;8.18;;;;;;;13.40;88.44;95388.38;5088881;28;20113;-70
2021/09/16 06:05:10;;;;;;;19.88;7.95;;;;;;;13.45;88.40;95391.09;5089632;28;20040;-70
2021/09/16 06:07:36;;;;;;;17.70;7.45;;;;;;;13.48;88.14;95384.59;5092200;28;20052;-69
2021/09/16 06:10:05;;;;;;;13.35;7.85;;;;;;;13.53;86.74;95382.84;5095569;28;20044;-70
2021/09/16 06:17:12;;;;;;;10.07;6.88;;;;;;;13.42;87.73;95385.53;5081297;27;20136;-71
2021/09/16 06:19:39;;;;;;;12.63;6.82;;;;;;;13.58;87.37;95396.03;5097211;28;20055;-71
2021/09/16 06:22:06;;;;;;;11.38;7.25;;;;;;;13.71;87.19;95408.03;5091591;28;20035;-70
2021/09/16 06:24:33;;;;;;;10.77;7.00;;;;;;;13.90;86.41;95408.59;5087061;28;20044;-70
2021/09/16 06:26:59;;;;;;;12.27;6.63;;;;;;;13.89;86.51;95393.91;5091665;28;20044;-70
2021/09/16 06:29:26;;;;;;;12.18;7.03;;;;;;;14.05;85.87;95399.41;5094133;28;20514;-70
2021/09/16 06:31:53;;;;;;;11.15;6.55;;;;;;;14.21;85.57;95414.31;5086494;28;20044;-71
2021/09/16 06:34:20;;;;;;;11.98;7.65;;;;;;;14.28;84.63;95394.00;5091540;28;20040;-70
2021/09/16 06:36:47;;;;;;;12.68;8.30;;;;;;;14.47;84.44;95401.59;5094966;28;20124;-71
2021/09/16 06:39:13;;;;;;;10.77;6.82;;;;;;;14.67;82.82;95396.63;5083234;28;20040;-70
2021/09/16 06:41:43;;;;;;;11.25;7.07;;;;;;;14.81;82.22;95396.28;5081874;28;20048;-71
2021/09/16 06:44:10;;;;;;;12.27;6.72;;;;;;;14.99;82.17;95396.00;5083912;28;21919;-69
2021/09/16 06:46:37;;;;;;;12.18;7.32;;;;;;;15.14;81.11;95394.56;5080207;28;20101;-70
2021/09/16 06:49:04;;;;;;;9.63;6.80;;;;;;;15.28;80.64;95390.53;5084668;27;20559;-69
2021/09/16 06:51:30;;;;;;;13.60;7.25;;;;;;;15.46;80.65;95403.31;5089862;28;20040;-69
2021/09/16 06:53:59;;;;;;;11.38;7.05;;;;;;;15.63;79.87;95402.44;5088139;28;20132;-70
2021/09/16 06:56:27;;;;;;;30.60;8.68;;;;;;;15.73;78.56;95397.28;5090489;28;20048;-69
2021/09/16 06:58:53;;;;;;;11.95;6.65;;;;;;;15.86;77.37;95381.16;5083816;28;20059;-69
2021/09/16 07:01:20;;;;;;;43.15;29.88;;;;;;;16.03;77.09;95395.97;5088316;28;20044;-69
2021/09/16 07:03:48;;;;;;;12.60;7.63;;;;;;;16.20;77.07;95403.72;5082736;28;20092;-68
2021/09/16 07:06:15;;;;;;;11.43;6.40;;;;;;;16.29;76.01;95396.16;5087255;28;20468;-68
2021/09/16 07:08:42;;;;;;;10.65;7.78;;;;;;;16.43;75.57;95395.47;5091605;27;20031;-68
2021/09/16 07:11:09;;;;;;;12.00;7.22;;;;;;;16.44;74.99;95372.63;5095529;28;20047;-69
2021/09/16 07:13:36;;;;;;;11.00;6.78;;;;;;;16.70;74.05;95389.31;5095060;28;20055;-68
2021/09/16 07:16:03;;;;;;;11.68;6.32;;;;;;;16.91;72.93;95395.50;5070510;28;20045;-69
2021/09/16 07:18:34;;;;;;;8.00;5.47;;;;;;;17.06;72.58;95386.06;5080301;28;20417;-69
2021/09/16 07:21:02;;;;;;;8.95;6.45;;;;;;;17.21;71.87;95388.75;5094244;28;20171;-69
2021/09/16 07:23:29;;;;;;;10.88;6.40;;;;;;;17.37;72.37;95382.47;5093816;28;20051;-70
2021/09/16 07:26:03;;;;;;;10.35;6.63;;;;;;;17.50;71.09;95383.84;5085426;28;20043;-70
2021/09/16 07:28:34;;;;;;;8.73;5.88;;;;;;;17.68;70.62;95387.81;5073697;28;20505;-69
2021/09/16 07:31:01;;;;;;;10.05;6.22;;;;;;;17.80;68.48;95389.38;5082529;28;20129;-69
2021/09/16 07:33:28;;;;;;;9.90;6.25;;;;;;;17.92;68.10;95392.59;5080486;28;20664;-71
2021/09/16 07:35:55;;;;;;;28.60;19.27;;;;;;;18.08;66.81;95391.53;5078064;28;20063;-69
2021/09/16 07:38:22;;;;;;;11.95;8.43;;;;;;;18.08;67.17;95369.66;5083535;28;21209;-68
2021/09/16 07:40:49;;;;;;;16.33;11.75;;;;;;;18.27;66.25;95383.09;5083566;28;20052;-69
2021/09/16 07:43:16;;;;;;;11.48;7.28;;;;;;;18.53;66.29;95381.97;5078193;28;20109;-69
2021/09/16 07:45:47;;;;;;;9.50;5.97;;;;;;;18.67;65.00;95390.13;5078121;28;20063;-69
2021/09/16 07:48:14;;;;;;;11.07;6.50;;;;;;;18.82;65.33;95372.72;5071504;28;20040;-69
2021/09/16 07:50:41;;;;;;;10.02;5.85;;;;;;;19.07;64.52;95382.38;5071339;28;20052;-70
2021/09/16 07:53:10;;;;;;;8.25;5.70;;;;;;;19.29;60.60;95390.69;5073671;28;20048;-70
2021/09/16 07:55:37;;;;;;;21.67;13.65;;;;;;;19.29;60.74;95377.50;5072775;28;20048;-70
2021/09/16 07:58:05;;;;;;;14.70;7.90;;;;;;;19.44;59.68;95365.28;5072101;28;20040;-70
2021/09/16 08:00:33;;;;;;;10.80;6.47;;;;;;;19.67;60.47;95377.78;5077292;28;20050;-70
2021/09/16 08:03:00;;;;;;;8.38;5.53;;;;;;;19.87;58.64;95368.19;5073940;28;20036;-70
2021/09/16 08:05:28;;;;;;;9.55;6.38;;;;;;;20.01;59.24;95369.13;5075977;28;20043;-70
2021/09/16 08:07:54;;;;;;;9.98;6.82;;;;;;;20.07;58.78;95369.09;5071606;28;20036;-70
2021/09/16 08:10:21;;;;;;;7.72;5.63;;;;;;;20.20;60.67;95371.06;5074983;28;20063;-70
2021/09/16 08:12:49;;;;;;;10.82;6.20;;;;;;;20.44;59.10;95363.19;5076097;28;20556;-70
2021/09/16 08:15:18;;;;;;;11.82;7.60;;;;;;;20.65;57.59;95363.00;5077449;28;20553;-70
2021/09/16 08:17:45;;;;;;;9.30;6.55;;;;;;;20.79;57.77;95362.03;5066858;28;20093;-71
2021/09/16 08:20:13;;;;;;;9.70;6.75;;;;;;;20.92;55.46;95351.81;5066254;28;20047;-71
2021/09/16 08:22:40;;;;;;;9.70;6.88;;;;;;;21.01;55.50;95371.31;5074260;28;20105;-70
2021/09/16 08:25:08;;;;;;;24.83;19.30;;;;;;;21.16;55.51;95373.00;5076038;28;20055;-71
2021/09/16 08:27:35;;;;;;;11.95;7.03;;;;;;;21.25;55.20;95370.47;5080000;28;20036;-70
2021/09/16 08:30:08;;;;;;;11.82;5.85;;;;;;;21.30;55.06;95370.41;5080730;28;20510;-70
2021/09/16 08:32:35;;;;;;;9.20;5.80;;;;;;;21.30;53.84;95370.41;5084629;28;20073;-70
2021/09/16 08:35:05;;;;;;;7.50;5.07;;;;;;;21.31;52.95;95358.75;5077568;28;20048;-71
2021/09/16 08:37:32;;;;;;;7.50;5.43;;;;;;;21.43;53.96;95359.13;5071718;28;20128;-70
2021/09/16 08:40:00;;;;;;;8.40;5.72;;;;;;;21.70;53.70;95360.34;5069846;28;20464;-71
2021/09/16 08:42:27;;;;;;;8.93;5.40;;;;;;;21.86;53.33;95353.75;5078682;28;20115;-71
2021/09/16 08:44:55;;;;;;;9.68;5.28;;;;;;;22.16;53.13;95359.59;5077831;28;20524;-70
2021/09/16 08:47:24;;;;;;;8.07;5.10;;;;;;;22.33;53.71;95351.91;5071700;28;20498;-70
2021/09/16 08:49:53;;;;;;;6.30;4.85;;;;;;;22.57;53.00;95350.94;5075541;28;20419;-67
2021/09/16 08:52:21;;;;;;;6.25;4.50;;;;;;;22.90;51.09;95358.81;5066671;28;20403;-67
2021/09/16 08:54:48;;;;;;;6.50;4.70;;;;;;;23.21;49.01;95358.22;5071246;28;20036;-68
2021/09/16 08:57:16;;;;;;;11.30;5.70;;;;;;;23.47;48.44;95359.22;5072907;28;20126;-66
2021/09/16 08:59:45;;;;;;;7.10;5.38;;;;;;;23.70;47.66;95348.63;5074912;28;20052;-68
2021/09/16 09:02:13;;;;;;;8.20;5.15;;;;;;;23.84;45.20;95341.41;5068786;28;20041;-69
2021/09/16 09:04:41;;;;;;;8.15;6.65;;;;;;;24.00;47.13;95338.38;5076637;28;20048;-67
2021/09/16 09:07:08;;;;;;;6.50;5.03;;;;;;;24.31;45.94;95335.75;5078362;28;20094;-68
2021/09/16 09:09:35;;;;;;;8.20;4.82;;;;;;;24.63;43.82;95336.50;5070112;28;20113;-68
2021/09/16 09:12:02;;;;;;;7.28;4.45;;;;;;;24.87;41.80;95330.81;5071602;28;20040;-68
2021/09/16 09:14:40;;;;;;;9.18;5.05;;;;;;;25.02;41.29;95316.25;5074950;28;20051;-68
2021/09/16 09:17:19;;;;;;;7.55;5.72;;;;;;;25.19;42.46;95323.47;5066042;28;20195;-67
2021/09/16 09:19:48;;;;;;;11.88;5.30;;;;;;;24.94;43.48;95325.81;5073083;28;20420;-67
2021/09/16 09:22:16;;;;;;;6.65;4.78;;;;;;;25.42;40.63;95331.38;5078822;28;20062;-68
2021/09/16 09:24:46;;;;;;;7.55;4.57;;;;;;;25.79;40.43;95315.84;5066687;28;20049;-68
2021/09/16 09:27:20;;;;;;;6.18;4.80;;;;;;;26.10;39.79;95320.97;5075917;28;20501;-68
2021/09/16 09:30:25;;;;;;;6.25;4.13;;;;;;;26.62;37.54;95320.06;5071264;28;20052;-68
2021/09/16 09:32:57;;;;;;;6.60;4.50;;;;;;;27.06;34.79;95317.91;5047871;28;20063;-68
2021/09/16 09:35:36;;;;;;;5.72;3.92;;;;;;;27.40;35.05;95321.47;5073677;28;20890;-68
2021/09/16 09:38:15;;;;;;;5.13;3.90;;;;;;;27.85;33.79;95321.56;5071012;28;20061;-67
2021/09/16 09:40:44;;;;;;;4.88;3.90;;;;;;;28.32;33.55;95320.47;5074525;28;20061;-69
2021/09/16 09:43:31;;;;;;;6.10;3.72;;;;;;;28.49;33.84;95324.88;5078898;28;20056;-68
2021/09/16 09:46:11;;;;;;;6.85;4.00;;;;;;;28.73;32.81;95318.75;5073126;28;20047;-68
2021/09/16 09:48:42;;;;;;;4.03;3.40;;;;;;;29.21;32.46;95329.00;5069402;28;20067;-68
2021/09/16 09:51:10;;;;;;;5.60;4.78;;;;;;;29.50;32.15;95320.66;5073612;28;20032;-67
2021/09/16 09:53:39;;;;;;;6.75;4.32;;;;;;;29.74;31.16;95314.44;5082689;28;20032;-67
2021/09/16 09:56:21;;;;;;;8.70;4.22;;;;;;;29.78;31.33;95314.53;5082476;28;20036;-68
2021/09/16 09:58:48;;;;;;;5.65;4.32;;;;;;;30.09;31.46;95318.44;5074264;28;20067;-68
2021/09/16 10:01:36;;;;;;;4.82;3.83;;;;;;;30.46;30.22;95305.56;5079932;28;20063;-68
2021/09/16 10:04:25;;;;;;;5.32;3.70;;;;;;;30.24;30.55;95314.22;5062868;28;20054;-68
2021/09/16 10:06:53;;;;;;;5.15;3.88;;;;;;;30.51;28.97;95311.81;5077158;28;20029;-67
2021/09/16 10:09:21;;;;;;;7.35;3.83;;;;;;;30.68;28.28;95311.44;5075400;28;20067;-67
2021/09/16 10:11:50;;;;;;;6.85;3.72;;;;;;;30.74;29.61;95306.59;5074936;28;20064;-67
2021/09/16 10:14:18;;;;;;;6.80;3.50;;;;;;;30.90;28.32;95307.38;5073372;28;20421;-67
2021/09/16 10:16:46;;;;;;;6.40;4.05;;;;;;;31.18;27.69;95306.44;5064656;28;20498;-67
2021/09/16 10:19:13;;;;;;;6.20;3.20;;;;;;;31.63;26.74;95308.53;5063277;28;20075;-67
2021/09/16 10:21:40;;;;;;;4.53;3.80;;;;;;;31.50;28.12;95298.28;5070931;28;20043;-67
2021/09/16 10:24:13;;;;;;;4.00;3.10;;;;;;;31.90;25.03;95307.91;5077205;28;20055;-67
2021/09/16 10:26:43;;;;;;;3.75;2.60;;;;;;;32.32;25.40;95296.34;5077998;28;20044;-68
2021/09/16 10:29:28;;;;;;;4.05;3.15;;;;;;;32.41;24.08;95294.19;5070097;28;20075;-67
2021/09/16 10:32:07;;;;;;;3.17;2.60;;;;;;;32.56;23.06;95295.97;5067635;28;20525;-67
2021/09/16 10:34:44;;;;;;;4.45;2.90;;;;;;;32.93;23.06;95292.69;5071908;28;20056;-67
2021/09/16 10:37:17;;;;;;;5.47;3.10;;;;;;;33.03;23.63;95304.00;5065366;28;20044;-67
2021/09/16 10:39:45;;;;;;;6.65;3.42;;;;;;;33.27;23.03;95284.69;5070667;28;20053;-67
2021/09/16 10:42:14;;;;;;;4.45;3.13;;;;;;;32.94;24.40;95283.47;5074176;28;20040;-68
2021/09/16 10:44:42;;;;;;;4.47;3.00;;;;;;;33.28;22.53;95283.56;5070532;28;20048;-67
2021/09/16 10:47:16;;;;;;;4.85;3.58;;;;;;;33.47;21.90;95282.59;5079156;28;20044;-67
2021/09/16 10:49:44;;;;;;;5.63;3.78;;;;;;;33.34;21.63;95267.81;5081457;28;20500;-67
2021/09/16 10:52:10;;;;;;;2.88;2.45;;;;;;;33.19;21.77;95283.06;5071139;28;20040;-68
2021/09/16 10:54:46;;;;;;;4.55;2.72;;;;;;;33.33;21.66;95272.44;5071985;28;20581;-67
2021/09/16 10:57:35;;;;;;;5.25;3.05;;;;;;;33.59;22.16;95262.69;5075192;28;20036;-67
2021/09/16 11:00:17;;;;;;;4.00;2.92;;;;;;;33.57;22.57;95259.59;5075167;28;20048;-68
2021/09/16 11:02:45;;;;;;;3.50;2.85;;;;;;;33.83;22.17;95260.66;5075171;28;20037;-66
2021/09/16 11:05:20;;;;;;;4.28;3.03;;;;;;;34.16;21.12;95267.13;5070565;28;20500;-67
2021/09/16 11:07:52;;;;;;;3.83;3.00;;;;;;;34.08;21.25;95255.50;5078287;28;20040;-67
2021/09/16 11:10:22;;;;;;;3.92;2.80;;;;;;;33.96;22.48;95248.44;5077545;28;20040;-67
2021/09/16 11:12:54;;;;;;;3.55;3.17;;;;;;;33.57;22.06;95243.41;5071109;28;20067;-66
2021/09/16 11:15:32;;;;;;;4.28;3.20;;;;;;;33.82;20.80;95237.50;5075351;28;20053;-67
2021/09/16 11:18:18;;;;;;;4.55;2.97;;;;;;;33.77;22.30;95235.91;5074568;28;20052;-66
2021/09/16 11:20:47;;;;;;;6.80;3.40;;;;;;;33.20;22.22;95230.63;5070445;28;20581;-67
2021/09/16 11:23:16;;;;;;;3.45;2.85;;;;;;;33.69;20.68;95228.88;5067827;28;20044;-66
2021/09/16 11:25:46;;;;;;;3.75;3.28;;;;;;;33.92;19.83;95231.41;5078364;28;20047;-66
2021/09/16 11:28:14;;;;;;;4.20;2.83;;;;;;;33.90;21.51;95228.31;5087331;28;20055;-66
2021/09/16 11:30:44;;;;;;;5.07;3.45;;;;;;;34.46;19.88;95227.25;5070212;28;20440;-66
2021/09/16 11:33:13;;;;;;;3.75;2.63;;;;;;;34.84;18.81;95225.22;5078275;28;20036;-67
2021/09/16 11:35:40;;;;;;;3.50;2.45;;;;;;;35.27;19.89;95213.03;5071843;28;20051;-66
2021/09/16 11:38:08;;;;;;;3.55;2.95;;;;;;;35.45;19.05;95219.28;5080811;28;20036;-66